createdAt,value
2019-05-25T00:02:42.341Z,10.50
2019-05-25T00:07:46.023Z,10.50
2019-05-25T00:12:49.599Z,10.60
2019-05-25T00:17:53.278Z,10.70
2019-05-25T00:22:56.926Z,10.50
2019-05-25T00:28:00.683Z,10.50
2019-05-25T00:33:04.413Z,10.20
2019-05-25T00:38:08.171Z,10.20
2019-05-25T00:43:11.933Z,10.10
2019-05-25T00:48:15.598Z,10.20
2019-05-25T00:53:19.306Z,10.10
2019-05-25T00:58:22.974Z,10.20
2019-05-25T01:03:26.629Z,10.30
2019-05-25T01:08:30.293Z,10.30
2019-05-25T01:13:34.055Z,10.30
2019-05-25T01:18:37.895Z,10.10
2019-05-25T01:23:41.581Z,10.10
2019-05-25T01:28:45.331Z,10.10
2019-05-25T01:33:48.966Z,9.90
2019-05-25T01:38:52.694Z,9.80
2019-05-25T01:43:56.368Z,9.80
2019-05-25T01:48:59.974Z,9.80
2019-05-25T01:54:03.686Z,9.90
2019-05-25T01:59:07.419Z,9.80
2019-05-25T02:04:11.146Z,9.80
2019-05-25T02:09:14.821Z,9.80
2019-05-25T02:14:18.649Z,9.80
2019-05-25T02:19:22.571Z,9.80
2019-05-25T02:24:26.259Z,9.80
2019-05-25T02:29:29.902Z,9.70
2019-05-25T02:34:33.622Z,9.70
2019-05-25T02:39:37.196Z,9.70
2019-05-25T02:44:40.924Z,9.70
2019-05-25T02:49:44.424Z,9.60
2019-05-25T02:54:48.085Z,9.70
2019-05-25T02:59:51.751Z,9.80
2019-05-25T03:04:55.563Z,9.70
2019-05-25T03:10:00.096Z,9.60
2019-05-25T03:15:05.954Z,9.60
2019-05-25T03:20:10.297Z,9.70
2019-05-25T03:25:14.009Z,9.80
2019-05-25T03:30:21.395Z,9.90
2019-05-25T03:35:24.978Z,10.00
2019-05-25T03:40:28.635Z,9.90
2019-05-25T03:45:32.753Z,10.00
2019-05-25T03:50:36.438Z,10.00
2019-05-25T03:55:40.057Z,10.10
2019-05-25T04:00:44.237Z,10.10
2019-05-25T04:05:47.805Z,10.20
2019-05-25T04:10:52.329Z,10.30
2019-05-25T04:15:55.888Z,10.20
2019-05-25T04:21:00.389Z,10.20
2019-05-25T04:26:04.137Z,10.30
2019-05-25T04:31:07.714Z,10.40
2019-05-25T04:36:11.358Z,10.60
2019-05-25T04:41:15.030Z,10.70
2019-05-25T04:46:21.471Z,11.00
2019-05-25T04:51:23.997Z,11.30
2019-05-25T04:56:38.959Z,11.40
2019-05-25T05:01:32.934Z,11.80
2019-05-25T05:06:36.645Z,12.10
2019-05-25T05:11:40.197Z,12.40
2019-05-25T05:16:43.827Z,13.00
2019-05-25T05:21:47.374Z,13.60
2019-05-25T05:26:55.974Z,14.20
2019-05-25T05:31:56.249Z,14.70
2019-05-25T05:37:01.059Z,14.80
2019-05-25T05:42:06.107Z,15.20
2019-05-25T05:47:11.312Z,15.30
2019-05-25T05:52:17.771Z,15.90
2019-05-25T05:57:21.526Z,15.80
2019-05-25T06:02:25.092Z,15.70
2019-05-25T06:07:28.658Z,15.60
2019-05-25T06:12:32.253Z,16.60
2019-05-25T06:17:35.999Z,17.20
2019-05-25T06:22:39.659Z,17.70
2019-05-25T06:27:43.202Z,17.70
2019-05-25T06:32:46.862Z,17.90
2019-05-25T06:37:50.446Z,18.10
2019-05-25T06:42:53.994Z,18.40
2019-05-25T06:47:57.584Z,18.50
2019-05-25T06:53:01.232Z,18.50
2019-05-25T06:58:05.347Z,18.60
2019-05-25T07:03:08.918Z,18.70
2019-05-25T07:08:12.554Z,18.80
2019-05-25T07:13:16.163Z,19.00
2019-05-25T07:18:19.819Z,19.30
2019-05-25T07:23:24.291Z,19.40
2019-05-25T07:28:27.963Z,19.40
2019-05-25T07:33:31.514Z,19.60
2019-05-25T07:38:35.152Z,19.30
2019-05-25T07:43:38.722Z,19.40
2019-05-25T07:48:42.428Z,19.00
2019-05-25T07:53:46.002Z,18.70
2019-05-25T07:58:49.662Z,18.60
2019-05-25T08:03:53.259Z,18.70
2019-05-25T08:08:56.823Z,18.90
2019-05-25T08:14:00.476Z,19.20
2019-05-25T08:19:04.375Z,19.40
2019-05-25T08:24:08.075Z,19.20
2019-05-25T08:29:11.751Z,19.10
2019-05-25T08:34:15.366Z,19.10
2019-05-25T08:39:19.518Z,19.40
2019-05-25T08:44:23.158Z,19.00
2019-05-25T08:49:26.785Z,18.80
2019-05-25T08:54:30.376Z,18.30
2019-05-25T08:59:33.946Z,18.30
2019-05-25T09:04:37.516Z,18.30
2019-05-25T09:09:41.122Z,17.90
2019-05-25T09:14:44.714Z,17.60
2019-05-25T09:19:48.297Z,17.50
2019-05-25T09:24:52.030Z,17.30
2019-05-25T09:29:55.613Z,17.60
2019-05-25T09:34:59.210Z,17.60
2019-05-25T09:40:02.863Z,17.90
2019-05-25T09:45:07.950Z,18.20
2019-05-25T09:50:12.436Z,18.60
2019-05-25T09:55:16.161Z,19.20
2019-05-25T10:00:20.271Z,19.20
2019-05-25T10:05:24.080Z,19.00
2019-05-25T10:10:28.227Z,18.60
2019-05-25T10:15:31.789Z,19.30
2019-05-25T10:20:35.502Z,19.80
2019-05-25T10:25:39.108Z,20.00
2019-05-25T10:30:42.858Z,19.80
2019-05-25T10:35:46.433Z,19.70
2019-05-25T10:40:50.130Z,19.30
2019-05-25T10:45:53.769Z,18.70
2019-05-25T10:50:57.412Z,18.90
2019-05-25T10:56:01.012Z,19.10
2019-05-25T11:01:04.857Z,19.60
2019-05-25T11:06:08.453Z,20.30
2019-05-25T11:11:12.103Z,20.50
2019-05-25T11:16:15.782Z,20.60
2019-05-25T11:21:19.478Z,20.00
2019-05-25T11:26:23.115Z,19.90
2019-05-25T11:31:26.800Z,19.60
2019-05-25T11:36:30.503Z,19.50
2019-05-25T11:41:34.173Z,19.30
2019-05-25T11:46:37.897Z,19.70
2019-05-25T11:51:41.505Z,20.20
2019-05-25T11:56:45.614Z,20.30
2019-05-25T12:01:49.218Z,20.20
2019-05-25T12:06:53.064Z,20.80
2019-05-25T12:11:56.706Z,21.00
2019-05-25T12:17:00.382Z,21.10
2019-05-25T12:22:04.173Z,21.70
2019-05-25T12:27:07.772Z,22.00
2019-05-25T12:32:11.492Z,22.10
2019-05-25T12:37:15.154Z,22.30
2019-05-25T12:42:18.884Z,22.30
2019-05-25T12:47:22.555Z,22.30
2019-05-25T12:52:26.129Z,22.30
2019-05-25T12:57:29.723Z,21.70
2019-05-25T13:02:33.351Z,21.60
2019-05-25T13:07:37.013Z,21.30
2019-05-25T13:12:40.691Z,21.00
2019-05-25T13:17:44.402Z,20.60
2019-05-25T13:22:47.994Z,19.90
2019-05-25T13:27:51.782Z,19.60
2019-05-25T13:32:55.390Z,19.30
2019-05-25T13:37:59.036Z,19.10
2019-05-25T13:43:05.012Z,19.10
2019-05-25T13:48:08.687Z,19.20
2019-05-25T13:53:12.336Z,19.20
2019-05-25T13:58:15.907Z,19.70
2019-05-25T14:03:19.664Z,19.80
2019-05-25T14:08:23.263Z,19.60
2019-05-25T14:13:26.929Z,19.50
2019-05-25T14:18:30.486Z,19.30
2019-05-25T14:23:34.709Z,19.10
2019-05-25T14:28:38.303Z,18.60
2019-05-25T14:33:41.932Z,18.40
2019-05-25T14:38:45.598Z,18.00
2019-05-25T14:43:49.272Z,17.40
2019-05-25T14:48:52.936Z,17.20
2019-05-25T14:53:56.565Z,16.20
2019-05-25T14:59:00.229Z,15.60
2019-05-25T15:04:03.918Z,15.30
2019-05-25T15:09:08.280Z,14.90
2019-05-25T15:14:11.922Z,14.60
2019-05-25T15:19:15.625Z,14.90
2019-05-25T15:24:19.295Z,15.50
2019-05-25T15:29:23.037Z,16.30
2019-05-25T15:34:26.696Z,16.70
2019-05-25T15:39:30.263Z,17.00
2019-05-25T15:44:33.860Z,17.10
2019-05-25T15:49:37.520Z,17.20
2019-05-25T15:54:41.197Z,17.30
2019-05-25T15:59:44.813Z,17.20
2019-05-25T16:04:48.454Z,17.20
2019-05-25T16:09:52.148Z,17.40
2019-05-25T16:14:55.746Z,17.60
2019-05-25T16:19:59.355Z,17.60
2019-05-25T16:25:03.053Z,17.60
2019-05-25T16:30:07.649Z,17.60
2019-05-25T16:35:11.415Z,17.70
2019-05-25T16:40:16.111Z,17.40
2019-05-25T16:45:19.922Z,17.40
2019-05-25T16:50:23.906Z,17.20
2019-05-25T16:55:27.570Z,17.20
2019-05-25T17:00:31.664Z,17.30
2019-05-25T17:05:35.458Z,17.00
2019-05-25T17:10:39.987Z,16.70
2019-05-25T17:15:43.666Z,16.60
2019-05-25T17:20:47.724Z,16.60
2019-05-25T17:25:51.314Z,16.80
2019-05-25T17:30:55.659Z,16.60
2019-05-25T17:35:59.322Z,17.00
2019-05-25T17:41:03.842Z,17.20
2019-05-25T17:46:07.553Z,17.30
2019-05-25T17:51:11.172Z,17.00
2019-05-25T17:56:14.828Z,17.10
2019-05-25T18:01:18.507Z,17.30
2019-05-25T18:06:22.251Z,17.30
2019-05-25T18:11:25.816Z,17.10
2019-05-25T18:16:29.454Z,17.20
2019-05-25T18:21:33.147Z,17.10
2019-05-25T18:26:36.771Z,16.90
2019-05-25T18:31:40.499Z,16.80
2019-05-25T18:36:44.111Z,16.50
2019-05-25T18:41:47.679Z,15.90
2019-05-25T18:46:51.350Z,15.20
2019-05-25T18:51:54.951Z,15.10
2019-05-25T18:56:58.553Z,14.80
2019-05-25T19:02:02.127Z,14.70
2019-05-25T19:07:05.976Z,14.20
2019-05-25T19:12:09.526Z,13.80
2019-05-25T19:17:13.130Z,13.70
2019-05-25T19:22:16.744Z,13.90
2019-05-25T19:27:20.387Z,14.30
2019-05-25T19:32:24.013Z,14.10
2019-05-25T19:37:27.591Z,14.30
2019-05-25T19:42:31.179Z,14.40
2019-05-25T19:47:34.903Z,14.20
2019-05-25T19:52:38.494Z,13.50
2019-05-25T19:57:45.227Z,13.80
2019-05-25T20:02:47.475Z,13.60
2019-05-25T20:07:51.144Z,13.60
2019-05-25T20:12:54.818Z,13.70
2019-05-25T20:17:58.431Z,13.50
2019-05-25T20:23:02.010Z,13.70
2019-05-25T20:28:05.747Z,13.50
2019-05-25T20:33:09.360Z,13.50
2019-05-25T20:38:13.023Z,13.30
2019-05-25T20:43:16.625Z,13.40
2019-05-25T20:48:20.208Z,13.40
2019-05-25T20:53:24.021Z,13.20
2019-05-25T20:58:27.666Z,13.30
2019-05-25T21:03:31.234Z,13.40
2019-05-25T21:08:34.803Z,13.20
2019-05-25T21:13:38.449Z,12.60
2019-05-25T21:18:42.185Z,12.50
2019-05-25T21:23:45.679Z,12.70
2019-05-25T21:28:49.246Z,12.60
2019-05-25T21:33:52.860Z,12.60
2019-05-25T21:38:56.527Z,12.30
2019-05-25T21:44:00.105Z,12.50
2019-05-25T21:49:03.786Z,12.60
2019-05-25T21:54:08.300Z,12.70
2019-05-25T21:59:11.888Z,12.20
2019-05-25T22:04:15.525Z,12.30
2019-05-25T22:09:19.155Z,12.30
2019-05-25T22:14:22.814Z,12.50
2019-05-25T22:19:26.503Z,12.50
2019-05-25T22:24:30.143Z,12.60
2019-05-25T22:29:33.798Z,12.60
2019-05-25T22:34:37.451Z,12.30
2019-05-25T22:39:41.132Z,12.50
2019-05-25T22:44:44.737Z,11.70
2019-05-25T22:49:48.320Z,12.20
2019-05-25T22:54:51.953Z,12.40
2019-05-25T22:59:55.538Z,12.50
2019-05-25T23:04:59.098Z,12.00
2019-05-25T23:10:03.125Z,11.40
2019-05-25T23:15:09.378Z,11.50
2019-05-25T23:20:14.211Z,11.60
2019-05-25T23:25:20.963Z,11.80
2019-05-25T23:30:25.669Z,11.90
2019-05-25T23:35:29.333Z,11.60
2019-05-25T23:40:32.927Z,10.90
2019-05-25T23:45:36.534Z,10.40
2019-05-25T23:50:41.058Z,10.90
2019-05-25T23:55:44.610Z,11.20
